Time;durP1;ratioP1;P1;durP2;ratioP2;P2;SDS_P1;SDS_P2;PMS_P1;PMS_P2;Temp;Humidity;BMP_temperature;BMP_pressure;BME280_temperature;BME280_humidity;BME280_pressure;Samples;Min_cycle;Max_cycle;Signal;HPM_P1;HPM_P2
2023/09/12 00:02:58;;;;;;;7.75;3.50;;;;;;;;;;10377056;22;20015;-60
2023/09/12 00:06:59;;;;;;;13.30;3.78;;;;;;;;;;10373710;22;20090;-60
2023/09/12 00:10:59;;;;;;;10.73;3.60;;;;;;;;;;10374831;22;20057;-60
2023/09/12 00:14:59;;;;;;;11.02;4.00;;;;;;;;;;10376715;22;19995;-60
2023/09/12 00:18:59;;;;;;;11.13;3.90;;;;;;;;;;10375974;22;20011;-60
2023/09/12 00:22:59;;;;;;;7.70;3.67;;;;;;;;;;10375754;22;20003;-61
2023/09/12 00:27:00;;;;;;;8.50;3.60;;;;;;;;;;10375934;22;20023;-60
2023/09/12 00:31:00;;;;;;;7.82;3.40;;;;;;;;;;10376637;22;20123;-60
2023/09/12 00:35:00;;;;;;;14.20;3.80;;;;;;;;;;10376748;22;20006;-60
2023/09/12 00:39:00;;;;;;;10.57;3.90;;;;;;;;;;10375129;22;20282;-60
2023/09/12 00:43:02;;;;;;;9.68;3.83;;;;;;;;;;10376409;22;20094;-60
2023/09/12 00:47:02;;;;;;;11.63;3.60;;;;;;;;;;10372672;22;20094;-61
2023/09/12 00:51:03;;;;;;;11.95;3.80;;;;;;;;;;10375864;22;20014;-60
2023/09/12 00:55:03;;;;;;;7.07;3.58;;;;;;;;;;10376787;22;20352;-60
2023/09/12 00:59:04;;;;;;;12.93;4.25;;;;;;;;;;10374431;22;20007;-60
2023/09/12 01:03:04;;;;;;;12.82;3.75;;;;;;;;;;10373470;22;20062;-60
2023/09/12 01:07:05;;;;;;;11.93;3.93;;;;;;;;;;10375357;22;20007;-60
2023/09/12 01:11:05;;;;;;;10.23;3.80;;;;;;;;;;10376991;22;20748;-60
2023/09/12 01:15:10;;;;;;;7.95;3.50;;;;;;;;;;10376588;22;20030;-60
2023/09/12 01:19:14;;;;;;;9.57;3.72;;;;;;;;;;10375600;22;19995;-61
2023/09/12 01:23:23;;;;;;;10.95;4.15;;;;;;;;;;10376392;22;20086;-60
2023/09/12 01:27:42;;;;;;;9.70;3.63;;;;;;;;;;10376687;22;20009;-60
2023/09/12 01:31:43;;;;;;;9.43;3.70;;;;;;;;;;10376243;22;20015;-60
2023/09/12 01:35:43;;;;;;;13.15;3.67;;;;;;;;;;10375258;22;20026;-60
2023/09/12 01:39:43;;;;;;;10.25;3.78;;;;;;;;;;10375199;22;19999;-60
2023/09/12 01:43:44;;;;;;;10.20;3.70;;;;;;;;;;10375148;22;20007;-60
2023/09/12 01:47:45;;;;;;;9.13;3.63;;;;;;;;;;10373287;22;20012;-60
2023/09/12 01:51:46;;;;;;;5.88;3.83;;;;;;;;;;10375879;22;20699;-60
2023/09/12 01:55:47;;;;;;;10.65;3.75;;;;;;;;;;10376497;22;19995;-60
2023/09/12 01:59:48;;;;;;;6.97;3.35;;;;;;;;;;10373138;22;20009;-60
2023/09/12 02:03:48;;;;;;;9.23;3.45;;;;;;;;;;10374920;22;20011;-61
2023/09/12 02:07:49;;;;;;;12.52;4.18;;;;;;;;;;10379120;22;20080;-60
2023/09/12 02:11:49;;;;;;;7.57;3.50;;;;;;;;;;10375551;22;20735;-60
2023/09/12 02:15:49;;;;;;;9.23;3.50;;;;;;;;;;10375402;22;20289;-60
2023/09/12 02:19:49;;;;;;;9.23;3.55;;;;;;;;;;10378371;22;19996;-60
2023/09/12 02:23:50;;;;;;;10.13;3.63;;;;;;;;;;10373376;22;20088;-60
2023/09/12 02:27:50;;;;;;;11.48;4.13;;;;;;;;;;10375904;22;20234;-60
2023/09/12 02:31:50;;;;;;;9.93;3.92;;;;;;;;;;10374812;22;20012;-60
2023/09/12 02:35:50;;;;;;;10.13;3.95;;;;;;;;;;10372565;22;20023;-60
2023/09/12 02:39:50;;;;;;;8.85;3.92;;;;;;;;;;10375474;22;20010;-60
2023/09/12 02:43:51;;;;;;;10.05;4.07;;;;;;;;;;10375953;22;19999;-61
2023/09/12 02:47:51;;;;;;;11.77;3.90;;;;;;;;;;10373627;22;20015;-60
2023/09/12 02:51:51;;;;;;;14.18;3.90;;;;;;;;;;10373560;22;19999;-60
2023/09/12 02:55:51;;;;;;;12.47;3.77;;;;;;;;;;10377313;22;20049;-60
2023/09/12 02:59:51;;;;;;;8.23;3.83;;;;;;;;;;10376303;22;20054;-60
2023/09/12 03:03:52;;;;;;;8.88;3.92;;;;;;;;;;10373874;22;20019;-60
2023/09/12 03:07:52;;;;;;;9.25;3.85;;;;;;;;;;10377657;22;20045;-63
2023/09/12 03:11:53;;;;;;;5.85;3.15;;;;;;;;;;10375899;22;20000;-60
2023/09/12 03:15:53;;;;;;;9.38;3.90;;;;;;;;;;10376477;22;20112;-60
2023/09/12 03:19:53;;;;;;;12.85;3.92;;;;;;;;;;10373536;22;19999;-60
2023/09/12 03:23:53;;;;;;;8.07;3.95;;;;;;;;;;10373645;22;20003;-60
2023/09/12 03:27:53;;;;;;;10.32;3.88;;;;;;;;;;10377636;22;20004;-61
2023/09/12 03:31:53;;;;;;;8.95;3.55;;;;;;;;;;10375252;22;20027;-61
2023/09/12 03:35:54;;;;;;;8.07;4.07;;;;;;;;;;10379231;22;20003;-61
2023/09/12 03:39:54;;;;;;;11.52;4.60;;;;;;;;;;10375225;22;20010;-60
2023/09/12 03:43:55;;;;;;;6.85;3.60;;;;;;;;;;10377900;22;20003;-60
2023/09/12 03:47:55;;;;;;;8.65;3.70;;;;;;;;;;10382567;22;20015;-60
2023/09/12 03:51:55;;;;;;;7.57;3.60;;;;;;;;;;10378541;22;20023;-60
2023/09/12 03:55:55;;;;;;;6.13;3.42;;;;;;;;;;10377778;22;19995;-60
2023/09/12 03:59:56;;;;;;;9.85;3.53;;;;;;;;;;10379273;22;20747;-60
2023/09/12 04:03:56;;;;;;;10.68;4.22;;;;;;;;;;10379053;22;20023;-60
2023/09/12 04:07:56;;;;;;;6.80;3.50;;;;;;;;;;10383211;22;20003;-60
2023/09/12 04:11:56;;;;;;;9.03;3.83;;;;;;;;;;10380706;22;20218;-60
2023/09/12 04:15:57;;;;;;;8.85;4.05;;;;;;;;;;10379357;22;20011;-60
2023/09/12 04:19:57;;;;;;;11.52;4.05;;;;;;;;;;10379194;22;20033;-60
2023/09/12 04:23:57;;;;;;;11.70;4.57;;;;;;;;;;10378594;22;20011;-60
2023/09/12 04:27:57;;;;;;;9.30;3.83;;;;;;;;;;10381473;22;20069;-60
2023/09/12 04:31:59;;;;;;;6.50;3.95;;;;;;;;;;10375648;22;20088;-60
2023/09/12 04:36:02;;;;;;;7.05;3.50;;;;;;;;;;10376935;22;20034;-61
2023/09/12 04:40:05;;;;;;;11.45;4.15;;;;;;;;;;10371767;22;20015;-61
2023/09/12 04:44:05;;;;;;;6.47;3.70;;;;;;;;;;10374610;22;20038;-60
2023/09/12 04:48:05;;;;;;;11.52;4.10;;;;;;;;;;10374187;22;20015;-60
2023/09/12 04:52:06;;;;;;;9.00;3.78;;;;;;;;;;10377044;22;20003;-60
2023/09/12 04:56:09;;;;;;;9.43;4.07;;;;;;;;;;10375691;22;20027;-60
2023/09/12 05:00:10;;;;;;;9.32;3.88;;;;;;;;;;10375093;22;20010;-61
2023/09/12 05:04:11;;;;;;;9.27;3.92;;;;;;;;;;10375449;22;20005;-61
2023/09/12 05:08:11;;;;;;;8.00;4.20;;;;;;;;;;10381810;22;20026;-60
2023/09/12 05:12:11;;;;;;;10.02;4.40;;;;;;;;;;10376538;22;19995;-60
2023/09/12 05:16:11;;;;;;;9.80;3.90;;;;;;;;;;10380319;22;20026;-60
2023/09/12 05:20:11;;;;;;;11.40;3.90;;;;;;;;;;10376382;22;20007;-60
2023/09/12 05:24:11;;;;;;;8.57;4.10;;;;;;;;;;10377091;22;20050;-60
2023/09/12 05:28:15;;;;;;;8.48;4.72;;;;;;;;;;10374282;22;20004;-60
2023/09/12 05:32:16;;;;;;;11.02;4.85;;;;;;;;;;10374799;22;20011;-60
2023/09/12 05:36:16;;;;;;;10.43;4.20;;;;;;;;;;10383315;22;20014;-60
2023/09/12 05:40:17;;;;;;;15.23;5.10;;;;;;;;;;10375781;22;20049;-60
2023/09/12 05:44:18;;;;;;;8.27;4.68;;;;;;;;;;10377009;22;19996;-60
2023/09/12 05:48:18;;;;;;;8.93;4.38;;;;;;;;;;10374319;22;20094;-61
2023/09/12 05:52:18;;;;;;;9.18;4.28;;;;;;;;;;10370647;22;19999;-60
2023/09/12 05:56:20;;;;;;;12.23;4.70;;;;;;;;;;10375917;22;20011;-61
2023/09/12 06:00:20;;;;;;;15.25;5.40;;;;;;;;;;10371273;22;20086;-61
2023/09/12 06:04:21;;;;;;;13.07;5.10;;;;;;;;;;10375816;22;20014;-61
2023/09/12 06:08:22;;;;;;;13.73;4.93;;;;;;;;;;10375939;22;20004;-61
2023/09/12 06:12:23;;;;;;;13.50;4.88;;;;;;;;;;10376628;22;20061;-61
2023/09/12 06:16:24;;;;;;;12.77;5.03;;;;;;;;;;10375578;22;20011;-61
2023/09/12 06:20:24;;;;;;;15.38;5.55;;;;;;;;;;10375488;22;20003;-61
2023/09/12 06:24:25;;;;;;;17.20;5.27;;;;;;;;;;10376091;22;20126;-61
2023/09/12 06:28:26;;;;;;;7.55;4.60;;;;;;;;;;10375489;22;20007;-61
2023/09/12 06:32:26;;;;;;;16.63;5.50;;;;;;;;;;10373439;22;20152;-61
2023/09/12 06:36:29;;;;;;;10.70;4.80;;;;;;;;;;10373156;22;20710;-61
2023/09/12 06:40:29;;;;;;;17.60;4.90;;;;;;;;;;10374419;22;19999;-61
2023/09/12 06:44:29;;;;;;;14.33;4.80;;;;;;;;;;10370283;22;20003;-61
2023/09/12 06:48:29;;;;;;;18.88;5.30;;;;;;;;;;10372794;22;20328;-62
2023/09/12 06:52:30;;;;;;;12.02;4.57;;;;;;;;;;10376124;22;20025;-62
2023/09/12 06:56:30;;;;;;;13.88;5.32;;;;;;;;;;10373239;22;20006;-61
2023/09/12 07:00:31;;;;;;;14.70;5.20;;;;;;;;;;10371444;22;20022;-62
2023/09/12 07:04:31;;;;;;;12.80;5.40;;;;;;;;;;10376016;22;20038;-62
2023/09/12 07:08:32;;;;;;;12.27;5.03;;;;;;;;;;10380090;22;19995;-62
2023/09/12 07:12:32;;;;;;;16.90;5.40;;;;;;;;;;10378397;22;19999;-63
2023/09/12 07:16:33;;;;;;;12.40;4.85;;;;;;;;;;10377359;22;20114;-62
2023/09/12 07:20:34;;;;;;;15.68;5.20;;;;;;;;;;10379274;22;20014;-62
2023/09/12 07:24:34;;;;;;;13.05;5.60;;;;;;;;;;10378555;22;20007;-62
2023/09/12 07:28:34;;;;;;;12.45;5.57;;;;;;;;;;10376821;22;19992;-62
2023/09/12 07:32:34;;;;;;;11.35;5.38;;;;;;;;;;10374698;22;20745;-62
2023/09/12 07:36:35;;;;;;;12.70;5.43;;;;;;;;;;10375652;22;20010;-62
2023/09/12 07:40:35;;;;;;;11.57;5.47;;;;;;;;;;10380655;22;20694;-62
2023/09/12 07:44:35;;;;;;;17.23;5.82;;;;;;;;;;10374275;22;20006;-62
2023/09/12 07:48:35;;;;;;;10.45;5.00;;;;;;;;;;10377602;22;20365;-61
2023/09/12 07:52:36;;;;;;;12.52;4.95;;;;;;;;;;10379215;22;20017;-62
2023/09/12 07:56:36;;;;;;;16.63;4.83;;;;;;;;;;10376230;22;20003;-62
2023/09/12 08:00:36;;;;;;;13.00;5.07;;;;;;;;;;10375455;22;20007;-65
2023/09/12 08:04:37;;;;;;;13.93;5.00;;;;;;;;;;10377119;22;20799;-62
2023/09/12 08:08:37;;;;;;;12.80;5.40;;;;;;;;;;10379552;22;19995;-61
2023/09/12 08:12:38;;;;;;;14.93;4.97;;;;;;;;;;10375619;22;20007;-61
2023/09/12 08:16:38;;;;;;;12.98;5.03;;;;;;;;;;10379216;22;20117;-61
2023/09/12 08:20:38;;;;;;;15.80;5.05;;;;;;;;;;10377285;22;20810;-61
2023/09/12 08:24:39;;;;;;;11.13;4.72;;;;;;;;;;10375146;22;20728;-61
2023/09/12 08:28:39;;;;;;;11.88;5.10;;;;;;;;;;10376832;22;20424;-61
2023/09/12 08:32:45;;;;;;;12.52;4.63;;;;;;;;;;10375104;22;20007;-61
2023/09/12 08:36:47;;;;;;;16.75;5.38;;;;;;;;;;10374941;22;20041;-61
2023/09/12 08:40:47;;;;;;;;;;;;;;;;;;10377529;22;20698;-61
2023/09/12 08:44:47;;;;;;;9.77;4.97;;;;;;;;;;10374037;22;19902;-62
2023/09/12 08:48:49;;;;;;;8.25;4.47;;;;;;;;;;10373569;22;20057;-62
2023/09/12 08:52:49;;;;;;;12.68;4.47;;;;;;;;;;10376541;22;20014;-61
2023/09/12 08:56:50;;;;;;;12.20;4.25;;;;;;;;;;10375950;22;20819;-61
2023/09/12 09:00:51;;;;;;;11.50;4.33;;;;;;;;;;10370490;22;20013;-61
2023/09/12 09:04:52;;;;;;;11.63;4.10;;;;;;;;;;10374525;22;20098;-61
2023/09/12 09:08:52;;;;;;;7.67;3.93;;;;;;;;;;10374810;22;20014;-61
2023/09/12 09:12:52;;;;;;;9.37;4.50;;;;;;;;;;10376740;22;20737;-61
2023/09/12 09:16:52;;;;;;;9.37;4.03;;;;;;;;;;10368120;22;20360;-61
2023/09/12 09:20:53;;;;;;;9.77;4.13;;;;;;;;;;10372816;22;20022;-61
2023/09/12 09:25:09;;;;;;;11.00;4.10;;;;;;;;;;10371169;22;19991;-61
2023/09/12 09:29:10;;;;;;;8.52;3.97;;;;;;;;;;10377004;22;20010;-61
2023/09/12 09:33:11;;;;;;;13.13;3.97;;;;;;;;;;10370287;22;20011;-61
2023/09/12 09:37:11;;;;;;;9.35;4.00;;;;;;;;;;10373171;22;20031;-61
2023/09/12 09:41:11;;;;;;;8.80;4.00;;;;;;;;;;10368057;22;20122;-62
2023/09/12 09:45:12;;;;;;;8.37;4.30;;;;;;;;;;10373781;22;20026;-61
2023/09/12 09:49:17;;;;;;;9.20;3.83;;;;;;;;;;10373152;22;20114;-61
2023/09/12 09:53:17;;;;;;;13.68;4.20;;;;;;;;;;10372362;22;20419;-61
2023/09/12 09:57:18;;;;;;;5.97;4.13;;;;;;;;;;10372967;22;20021;-61
2023/09/12 10:01:20;;;;;;;9.80;4.10;;;;;;;;;;10371044;22;20102;-61
2023/09/12 10:05:20;;;;;;;14.32;4.90;;;;;;;;;;10373052;22;20041;-61
2023/09/12 10:09:21;;;;;;;8.43;4.18;;;;;;;;;;10374414;22;20751;-61
2023/09/12 10:13:26;;;;;;;7.90;4.28;;;;;;;;;;10375393;22;20003;-61
2023/09/12 10:17:31;;;;;;;6.80;4.22;;;;;;;;;;10371748;22;20019;-61
2023/09/12 10:21:33;;;;;;;7.32;3.83;;;;;;;;;;10370336;22;20022;-61
2023/09/12 10:25:35;;;;;;;9.27;4.47;;;;;;;;;;10373958;22;20262;-61
2023/09/12 10:29:35;;;;;;;8.38;4.30;;;;;;;;;;10367261;22;20265;-61
2023/09/12 10:33:35;;;;;;;7.17;3.90;;;;;;;;;;10371373;22;20256;-61
2023/09/12 10:37:37;;;;;;;10.75;4.40;;;;;;;;;;10371327;22;20485;-61
2023/09/12 10:41:39;;;;;;;10.52;4.50;;;;;;;;;;10369974;22;20442;-61
2023/09/12 10:45:40;;;;;;;7.63;3.90;;;;;;;;;;10376200;22;20365;-61
2023/09/12 10:49:43;;;;;;;9.67;3.50;;;;;;;;;;10373076;22;20003;-61
2023/09/12 10:53:50;;;;;;;7.65;3.60;;;;;;;;;;10376272;22;20214;-61
2023/09/12 10:58:00;;;;;;;8.23;3.80;;;;;;;;;;10374977;22;20007;-61
2023/09/12 11:02:19;;;;;;;13.80;4.25;;;;;;;;;;10372519;22;20015;-61
2023/09/12 11:06:21;;;;;;;10.18;3.92;;;;;;;;;;10377256;22;19991;-61
2023/09/12 11:10:21;;;;;;;7.85;3.85;;;;;;;;;;10369068;22;20011;-61
2023/09/12 11:14:23;;;;;;;9.17;3.80;;;;;;;;;;10375970;22;19995;-61
2023/09/12 11:18:24;;;;;;;11.68;4.20;;;;;;;;;;10376130;22;20114;-61
2023/09/12 11:22:24;;;;;;;7.05;3.75;;;;;;;;;;10375317;22;20922;-61
2023/09/12 11:26:25;;;;;;;6.33;4.27;;;;;;;;;;10375137;22;20400;-61
2023/09/12 11:30:26;;;;;;;6.00;3.83;;;;;;;;;;10378007;22;20111;-61
2023/09/12 11:34:27;;;;;;;7.67;3.90;;;;;;;;;;10377286;22;20369;-61
2023/09/12 11:38:29;;;;;;;6.68;4.03;;;;;;;;;;10371814;22;20222;-61
2023/09/12 11:42:29;;;;;;;8.40;3.80;;;;;;;;;;10369784;22;20003;-61
2023/09/12 11:46:30;;;;;;;6.90;3.80;;;;;;;;;;10371510;22;20012;-61
2023/09/12 11:50:31;;;;;;;5.23;3.57;;;;;;;;;;10372765;22;19999;-61
2023/09/12 11:54:34;;;;;;;6.90;3.78;;;;;;;;;;10370771;22;20010;-61
2023/09/12 11:58:34;;;;;;;4.78;3.47;;;;;;;;;;10374689;22;20813;-61
2023/09/12 12:02:35;;;;;;;4.57;3.70;;;;;;;;;;10371253;22;20019;-61
2023/09/12 12:06:35;;;;;;;6.07;3.42;;;;;;;;;;10375249;22;20045;-61
2023/09/12 12:10:38;;;;;;;5.47;3.50;;;;;;;;;;10376321;22;20048;-61
2023/09/12 12:14:38;;;;;;;5.82;3.80;;;;;;;;;;10376959;22;20841;-61
2023/09/12 12:18:39;;;;;;;5.97;3.50;;;;;;;;;;10373481;22;21050;-61
2023/09/12 12:22:40;;;;;;;4.13;3.70;;;;;;;;;;10365056;22;20205;-61
2023/09/12 12:26:41;;;;;;;5.80;3.87;;;;;;;;;;10362304;22;20295;-61
2023/09/12 12:30:41;;;;;;;7.05;3.50;;;;;;;;;;10363826;22;20161;-61
2023/09/12 12:34:41;;;;;;;7.18;3.55;;;;;;;;;;10359026;22;20030;-61
2023/09/12 12:38:43;;;;;;;5.05;3.90;;;;;;;;;;10367355;22;19999;-61
2023/09/12 12:42:46;;;;;;;5.10;3.50;;;;;;;;;;10368540;22;20003;-61
2023/09/12 12:46:53;;;;;;;7.13;3.60;;;;;;;;;;10372655;22;20035;-61
2023/09/12 12:50:53;;;;;;;3.70;3.22;;;;;;;;;;10370438;22;20247;-61
2023/09/12 12:55:02;;;;;;;5.60;3.55;;;;;;;;;;10366754;22;20008;-62
2023/09/12 12:59:06;;;;;;;5.53;3.60;;;;;;;;;;10372998;22;20007;-61
2023/09/12 13:03:06;;;;;;;4.13;3.30;;;;;;;;;;10369178;22;20226;-62
2023/09/12 13:07:06;;;;;;;5.67;3.77;;;;;;;;;;10371963;22;20050;-62
2023/09/12 13:11:07;;;;;;;6.53;3.67;;;;;;;;;;10371159;22;20186;-62
2023/09/12 13:15:07;;;;;;;4.27;3.13;;;;;;;;;;10369982;22;20559;-61
2023/09/12 13:19:10;;;;;;;4.73;3.23;;;;;;;;;;10370705;22;20026;-61
2023/09/12 13:23:11;;;;;;;6.22;3.08;;;;;;;;;;10371359;22;20228;-62
2023/09/12 13:27:11;;;;;;;5.97;3.00;;;;;;;;;;10369629;22;20090;-61
2023/09/12 13:31:11;;;;;;;5.13;2.72;;;;;;;;;;10368025;22;20022;-62
2023/09/12 13:35:12;;;;;;;4.10;2.90;;;;;;;;;;10364823;22;20099;-61
2023/09/12 13:39:12;;;;;;;4.17;2.70;;;;;;;;;;10366959;22;20007;-62
2023/09/12 13:43:13;;;;;;;2.70;2.50;;;;;;;;;;10362157;22;20003;-61
2023/09/12 13:47:13;;;;;;;9.10;2.80;;;;;;;;;;10366972;22;20008;-61
2023/09/12 13:51:14;;;;;;;6.25;2.70;;;;;;;;;;10365851;22;20014;-62
2023/09/12 13:55:15;;;;;;;6.17;2.80;;;;;;;;;;10363562;22;20034;-61
2023/09/12 13:59:20;;;;;;;;;;;;;;;;;;10368701;22;20026;-62
2023/09/12 14:03:20;;;;;;;4.28;2.60;;;;;;;;;;10366889;22;20321;-62
2023/09/12 14:07:21;;;;;;;4.20;2.67;;;;;;;;;;10366338;22;19992;-61
2023/09/12 14:11:21;;;;;;;4.10;2.50;;;;;;;;;;10365918;22;20042;-62
2023/09/12 14:15:22;;;;;;;5.90;2.70;;;;;;;;;;10367931;22;20137;-61
2023/09/12 14:19:22;;;;;;;2.67;2.30;;;;;;;;;;10365574;22;20019;-62
2023/09/12 14:23:22;;;;;;;5.15;2.45;;;;;;;;;;10366898;22;20045;-61
2023/09/12 14:27:22;;;;;;;2.60;2.40;;;;;;;;;;10368316;22;19999;-61
2023/09/12 14:31:23;;;;;;;5.20;2.88;;;;;;;;;;10365507;22;20022;-61
2023/09/12 14:35:23;;;;;;;3.53;2.28;;;;;;;;;;10365032;22;20074;-61
2023/09/12 14:39:23;;;;;;;4.53;2.30;;;;;;;;;;10367975;22;20025;-60
2023/09/12 14:43:23;;;;;;;4.03;2.85;;;;;;;;;;10368489;22;20022;-60
2023/09/12 14:47:26;;;;;;;3.00;2.70;;;;;;;;;;10366341;22;20011;-61
2023/09/12 14:51:26;;;;;;;4.00;2.50;;;;;;;;;;10361055;22;20072;-60
2023/09/12 14:55:27;;;;;;;4.50;2.45;;;;;;;;;;10356926;22;19991;-61
2023/09/12 14:59:27;;;;;;;3.03;2.50;;;;;;;;;;10363539;22;20034;-60
2023/09/12 15:03:27;;;;;;;3.10;2.67;;;;;;;;;;10367307;22;20091;-60
2023/09/12 15:07:29;;;;;;;6.18;2.70;;;;;;;;;;10365158;22;19995;-61
2023/09/12 15:11:31;;;;;;;6.30;2.70;;;;;;;;;;10366032;22;20070;-60
2023/09/12 15:15:31;;;;;;;3.97;2.72;;;;;;;;;;10365370;22;20019;-61
2023/09/12 15:19:31;;;;;;;4.55;2.75;;;;;;;;;;10367819;22;19999;-60
2023/09/12 15:23:32;;;;;;;2.83;2.40;;;;;;;;;;10345706;22;20507;-60
2023/09/12 15:27:34;;;;;;;2.58;2.10;;;;;;;;;;10362053;22;20007;-61
2023/09/12 15:31:35;;;;;;;4.25;2.13;;;;;;;;;;10357281;22;20453;-61
2023/09/12 15:35:35;;;;;;;2.50;2.30;;;;;;;;;;10352721;22;20007;-61
2023/09/12 15:39:35;;;;;;;3.53;2.63;;;;;;;;;;10364676;22;20027;-62
2023/09/12 15:43:35;;;;;;;3.55;2.30;;;;;;;;;;10367573;22;20018;-61
2023/09/12 15:47:36;;;;;;;2.45;2.25;;;;;;;;;;10358869;22;20106;-61
2023/09/12 15:51:36;;;;;;;4.15;2.40;;;;;;;;;;10372848;22;20065;-61
2023/09/12 15:55:37;;;;;;;2.30;2.10;;;;;;;;;;10370491;22;20003;-61
2023/09/12 15:59:37;;;;;;;2.65;2.17;;;;;;;;;;10371854;22;20439;-62
2023/09/12 16:03:37;;;;;;;2.53;2.30;;;;;;;;;;10371045;22;20015;-60
2023/09/12 16:07:37;;;;;;;3.70;2.70;;;;;;;;;;10373996;22;20011;-61
2023/09/12 16:11:37;;;;;;;2.83;2.28;;;;;;;;;;10371807;22;20007;-60
2023/09/12 16:15:38;;;;;;;2.90;2.60;;;;;;;;;;10373758;22;20416;-60
2023/09/12 16:19:38;;;;;;;7.15;2.60;;;;;;;;;;10372653;22;20323;-60
2023/09/12 16:23:38;;;;;;;3.97;2.50;;;;;;;;;;10373525;22;20002;-60
2023/09/12 16:27:38;;;;;;;3.73;2.60;;;;;;;;;;10374094;22;20796;-60
2023/09/12 16:31:40;;;;;;;2.83;2.63;;;;;;;;;;10368602;22;20694;-60
2023/09/12 16:35:40;;;;;;;3.23;2.87;;;;;;;;;;10370500;22;20007;-61
2023/09/12 16:39:42;;;;;;;3.03;2.63;;;;;;;;;;10368235;22;20260;-60
2023/09/12 16:43:42;;;;;;;4.80;3.05;;;;;;;;;;10373319;22;20011;-60
2023/09/12 16:47:42;;;;;;;3.53;2.88;;;;;;;;;;10365440;22;20431;-60
2023/09/12 16:51:43;;;;;;;4.82;2.80;;;;;;;;;;10372221;22;20003;-60
2023/09/12 16:55:43;;;;;;;3.53;2.70;;;;;;;;;;10368436;22;20271;-60
2023/09/12 16:59:44;;;;;;;6.32;3.10;;;;;;;;;;10368441;22;20136;-60
2023/09/12 17:03:44;;;;;;;6.78;3.80;;;;;;;;;;10368973;22;20201;-60
2023/09/12 17:07:44;;;;;;;10.75;4.25;;;;;;;;;;10364540;22;19991;-60
2023/09/12 17:11:45;;;;;;;6.30;4.07;;;;;;;;;;10367458;22;20017;-60
2023/09/12 17:15:45;;;;;;;6.80;3.93;;;;;;;;;;10369037;22;20019;-61
2023/09/12 17:19:46;;;;;;;5.97;4.60;;;;;;;;;;10363608;22;20007;-60
2023/09/12 17:23:46;;;;;;;7.97;4.75;;;;;;;;;;10366346;22;20015;-61
2023/09/12 17:27:48;;;;;;;6.50;4.50;;;;;;;;;;10371011;22;20058;-61
2023/09/12 17:31:48;;;;;;;9.47;5.50;;;;;;;;;;10368491;22;20483;-61
2023/09/12 17:35:48;;;;;;;6.32;5.07;;;;;;;;;;10360303;22;20030;-60
2023/09/12 17:39:51;;;;;;;9.37;4.47;;;;;;;;;;10368002;22;20011;-60
2023/09/12 17:43:51;;;;;;;7.28;4.38;;;;;;;;;;10369701;22;20084;-61
2023/09/12 17:47:53;;;;;;;9.23;4.95;;;;;;;;;;10370486;22;20211;-60
2023/09/12 17:51:53;;;;;;;11.07;5.40;;;;;;;;;;10360312;22;20867;-61
2023/09/12 17:55:53;;;;;;;6.40;4.75;;;;;;;;;;10367838;22;20367;-61
2023/09/12 17:59:55;;;;;;;7.47;4.20;;;;;;;;;;10365682;22;20082;-60
2023/09/12 18:03:55;;;;;;;8.95;3.60;;;;;;;;;;10364866;22;20679;-60
2023/09/12 18:07:56;;;;;;;6.22;3.30;;;;;;;;;;10367263;22;19995;-60
2023/09/12 18:11:57;;;;;;;9.23;3.70;;;;;;;;;;10358518;22;19999;-60
2023/09/12 18:15:57;;;;;;;9.18;3.40;;;;;;;;;;10367175;22;20496;-60
2023/09/12 18:19:58;;;;;;;7.22;3.53;;;;;;;;;;10366671;22;20077;-59
2023/09/12 18:23:58;;;;;;;5.27;3.80;;;;;;;;;;10369019;22;20046;-59
2023/09/12 18:27:58;;;;;;;8.73;3.20;;;;;;;;;;10370672;22;20003;-59
2023/09/12 18:31:58;;;;;;;5.57;3.50;;;;;;;;;;10366192;22;20046;-60
2023/09/12 18:35:59;;;;;;;9.80;4.32;;;;;;;;;;10367485;22;20003;-59
2023/09/12 18:39:59;;;;;;;12.53;3.97;;;;;;;;;;10366903;22;20014;-59
2023/09/12 18:44:00;;;;;;;8.55;3.97;;;;;;;;;;10369946;22;20011;-59
2023/09/12 18:48:00;;;;;;;8.27;3.80;;;;;;;;;;10369085;22;20154;-61
2023/09/12 18:52:01;;;;;;;7.85;3.30;;;;;;;;;;10366363;22;20490;-60
2023/09/12 18:56:01;;;;;;;4.80;2.60;;;;;;;;;;10367095;22;20090;-59
2023/09/12 19:00:01;;;;;;;9.55;2.40;;;;;;;;;;10369246;22;20229;-60
2023/09/12 19:04:20;;;;;;;6.88;2.47;;;;;;;;;;10371304;22;20094;-59
2023/09/12 19:08:20;;;;;;;4.15;2.08;;;;;;;;;;10371317;22;20264;-59
2023/09/12 19:12:20;;;;;;;3.83;1.90;;;;;;;;;;10373749;22;19999;-59
2023/09/12 19:16:21;;;;;;;4.20;2.08;;;;;;;;;;10371364;22;20075;-59
2023/09/12 19:20:21;;;;;;;1.70;1.60;;;;;;;;;;10373899;22;20398;-60
2023/09/12 19:24:21;;;;;;;6.00;1.40;;;;;;;;;;10370625;22;20003;-60
2023/09/12 19:28:22;;;;;;;2.40;1.40;;;;;;;;;;10369498;22;20385;-60
2023/09/12 19:32:22;;;;;;;3.83;1.60;;;;;;;;;;10371421;22;20903;-60
2023/09/12 19:36:22;;;;;;;1.60;1.50;;;;;;;;;;10372468;22;19999;-59
2023/09/12 19:40:26;;;;;;;3.57;1.60;;;;;;;;;;10371738;22;19999;-60
2023/09/12 19:44:28;;;;;;;4.75;1.50;;;;;;;;;;10371950;22;20682;-60
2023/09/12 19:48:28;;;;;;;3.00;1.50;;;;;;;;;;10369793;22;20027;-59
2023/09/12 19:52:29;;;;;;;3.50;1.55;;;;;;;;;;10368379;22;20077;-59
2023/09/12 19:56:29;;;;;;;6.50;1.50;;;;;;;;;;10370276;22;20007;-60
2023/09/12 20:00:29;;;;;;;2.50;1.40;;;;;;;;;;10370128;22;20665;-60
2023/09/12 20:04:30;;;;;;;4.10;1.70;;;;;;;;;;10375363;22;20010;-60
2023/09/12 20:08:30;;;;;;;1.60;1.50;;;;;;;;;;10376520;22;20525;-60
2023/09/12 20:12:30;;;;;;;1.87;1.40;;;;;;;;;;10372135;22;20078;-59
2023/09/12 20:16:30;;;;;;;1.75;1.60;;;;;;;;;;10374918;22;20433;-60
2023/09/12 20:20:31;;;;;;;2.25;1.40;;;;;;;;;;10373727;22;21026;-59
2023/09/12 20:24:31;;;;;;;1.60;1.50;;;;;;;;;;10369110;22;20366;-59
2023/09/12 20:28:31;;;;;;;1.77;1.60;;;;;;;;;;10373334;22;20117;-59
2023/09/12 20:32:31;;;;;;;2.10;1.90;;;;;;;;;;10372523;22;20383;-60
2023/09/12 20:36:34;;;;;;;2.60;1.80;;;;;;;;;;10374242;22;20222;-59
2023/09/12 20:40:34;;;;;;;2.60;2.08;;;;;;;;;;10369137;22;20312;-59
2023/09/12 20:44:35;;;;;;;3.57;2.20;;;;;;;;;;10372495;22;20137;-59
2023/09/12 20:48:37;;;;;;;1.98;1.80;;;;;;;;;;10368430;22;20015;-59
2023/09/12 20:52:38;;;;;;;2.53;2.10;;;;;;;;;;10370600;22;20003;-59
2023/09/12 20:56:41;;;;;;;3.00;2.37;;;;;;;;;;10371258;22;20130;-60
2023/09/12 21:00:43;;;;;;;2.42;2.20;;;;;;;;;;10369940;22;20258;-59
2023/09/12 21:04:44;;;;;;;3.15;2.30;;;;;;;;;;10367680;22;20007;-59
2023/09/12 21:08:44;;;;;;;2.55;2.35;;;;;;;;;;10370249;22;20007;-60
2023/09/12 21:12:45;;;;;;;4.97;2.40;;;;;;;;;;10368012;22;20082;-60
2023/09/12 21:16:45;;;;;;;3.47;2.20;;;;;;;;;;10365802;22;20011;-60
2023/09/12 21:20:48;;;;;;;4.63;2.33;;;;;;;;;;10369396;22;20003;-60
2023/09/12 21:24:48;;;;;;;2.30;2.10;;;;;;;;;;10367423;22;20488;-60
2023/09/12 21:28:48;;;;;;;2.40;2.20;;;;;;;;;;10370769;22;20057;-59
2023/09/12 21:32:50;;;;;;;2.40;2.17;;;;;;;;;;10366999;22;20078;-60
2023/09/12 21:36:50;;;;;;;3.17;2.30;;;;;;;;;;10369835;22;20006;-60
2023/09/12 21:40:51;;;;;;;2.78;2.58;;;;;;;;;;10365629;22;20042;-59
2023/09/12 21:44:51;;;;;;;2.50;2.30;;;;;;;;;;10370356;22;20003;-60
2023/09/12 21:48:51;;;;;;;2.70;2.50;;;;;;;;;;10366060;22;20027;-60
2023/09/12 21:52:51;;;;;;;2.80;2.55;;;;;;;;;;10369039;22;20003;-60
2023/09/12 21:56:52;;;;;;;5.72;2.72;;;;;;;;;;10367838;22;20116;-60
2023/09/12 22:00:53;;;;;;;4.00;2.60;;;;;;;;;;10368880;22;20022;-59
2023/09/12 22:04:53;;;;;;;3.58;2.78;;;;;;;;;;10368278;22;20010;-59
2023/09/12 22:08:54;;;;;;;3.67;2.90;;;;;;;;;;10373361;22;19995;-60
2023/09/12 22:12:54;;;;;;;5.40;3.13;;;;;;;;;;10370133;22;19999;-60
2023/09/12 22:16:55;;;;;;;5.25;3.10;;;;;;;;;;10372171;22;20011;-60
2023/09/12 22:20:55;;;;;;;3.90;2.80;;;;;;;;;;10372036;22;20010;-59
2023/09/12 22:24:55;;;;;;;3.33;2.97;;;;;;;;;;10376813;22;20006;-60
2023/09/12 22:28:55;;;;;;;5.40;3.40;;;;;;;;;;10376439;22;20004;-60
2023/09/12 22:32:56;;;;;;;3.72;2.75;;;;;;;;;;10375208;22;20738;-59
2023/09/12 22:36:56;;;;;;;3.20;2.90;;;;;;;;;;10381462;22;20007;-59
2023/09/12 22:40:56;;;;;;;3.42;2.90;;;;;;;;;;10381002;22;20003;-59
2023/09/12 22:44:57;;;;;;;4.27;2.90;;;;;;;;;;10381859;22;20455;-60
2023/09/12 22:48:57;;;;;;;2.83;2.58;;;;;;;;;;10380649;22;20565;-60
2023/09/12 22:52:57;;;;;;;2.70;2.50;;;;;;;;;;10379514;22;20130;-60
2023/09/12 22:56:57;;;;;;;3.83;2.77;;;;;;;;;;10381871;22;20057;-60
2023/09/12 23:00:58;;;;;;;2.70;2.50;;;;;;;;;;10377117;22;20841;-60
2023/09/12 23:04:58;;;;;;;3.27;2.87;;;;;;;;;;10381311;22;20065;-61
2023/09/12 23:08:58;;;;;;;2.80;2.60;;;;;;;;;;10377622;22;20002;-61
2023/09/12 23:12:58;;;;;;;2.97;2.70;;;;;;;;;;10379170;22;20678;-60
2023/09/12 23:16:58;;;;;;;2.85;2.65;;;;;;;;;;10380006;22;20073;-60
2023/09/12 23:20:59;;;;;;;2.23;2.07;;;;;;;;;;10381525;22;20011;-61
2023/09/12 23:24:59;;;;;;;2.50;2.30;;;;;;;;;;10381901;22;19999;-61
2023/09/12 23:28:59;;;;;;;2.50;2.30;;;;;;;;;;10383189;22;20015;-60
2023/09/12 23:32:59;;;;;;;2.15;2.05;;;;;;;;;;10380597;22;20015;-61
2023/09/12 23:36:59;;;;;;;3.05;2.25;;;;;;;;;;10378780;22;20113;-60